Terminal Aerodrome Forecast
Issued by NWS South Bend, IN

Home | Current Version | Previous Version | Graphics & Text | Print | Product List | Glossary On
Versions: 1 2 3 4 5 6 7 8 9 10 11 12 13 14
000
FTUS43 KIWX 231100
TAFSBN
TAF
KSBN 231120Z 2312/2412 33006KT P6SM SCT080
     FM231430 31015G22KT P6SM SCT050
     FM240000 31003KT P6SM SKC=

USA.gov is the U.S. government's official web portal to all federal, state and local government web resources and services.